Time;durP1;ratioP1;P1;durP2;ratioP2;P2;SDS_P1;SDS_P2;PMS_P1;PMS_P2;Temp;Humidity;BMP_temperature;BMP_pressure;BME280_temperature;BME280_humidity;BME280_pressure;Samples;Min_cycle;Max_cycle;Signal;HPM_P1;HPM_P2
2023/12/08 00:01:13;;;;;;;31.23;16.45;;;0.80;99.90;;;;;;5055651;28;20106;-31
2023/12/08 00:03:39;;;;;;;27.77;16.50;;;0.80;99.90;;;;;;5055596;28;20390;-32
2023/12/08 00:06:09;;;;;;;29.17;17.02;;;0.80;99.90;;;;;;5055586;28;20041;-32
2023/12/08 00:08:35;;;;;;;29.50;17.35;;;0.80;99.90;;;;;;5055509;28;20036;-32
2023/12/08 00:11:01;;;;;;;26.83;17.37;;;0.80;99.90;;;;;;5055493;28;20049;-32
2023/12/08 00:13:27;;;;;;;27.33;17.05;;;0.80;99.90;;;;;;5054770;28;20041;-32
2023/12/08 00:15:52;;;;;;;28.90;17.50;;;0.80;99.90;;;;;;5055082;28;20102;-31
2023/12/08 00:18:18;;;;;;;33.30;17.92;;;0.70;99.90;;;;;;5055305;28;20433;-31
2023/12/08 00:20:44;;;;;;;31.88;17.52;;;0.70;99.90;;;;;;5055866;28;20131;-32
2023/12/08 00:23:11;;;;;;;34.63;17.35;;;0.70;99.90;;;;;;5055181;28;20475;-33
2023/12/08 00:25:36;;;;;;;28.95;17.60;;;0.70;99.90;;;;;;5055078;28;20044;-32
2023/12/08 00:28:03;;;;;;;30.35;18.50;;;0.70;99.90;;;;;;5055456;28;20382;-32
2023/12/08 00:30:29;;;;;;;27.13;17.43;;;0.70;99.90;;;;;;5053785;28;20060;-33
2023/12/08 00:32:56;;;;;;;28.25;17.40;;;0.70;99.90;;;;;;5053883;28;20471;-33
2023/12/08 00:35:24;;;;;;;26.10;16.55;;;0.70;99.90;;;;;;5054055;28;20044;-32
2023/12/08 00:37:50;;;;;;;27.53;16.63;;;0.70;99.90;;;;;;5055006;28;20099;-32
2023/12/08 00:40:17;;;;;;;26.88;17.00;;;0.70;99.90;;;;;;5054941;28;20037;-32
2023/12/08 00:42:43;;;;;;;28.67;15.68;;;0.70;99.90;;;;;;5054899;28;20486;-32
2023/12/08 00:45:09;;;;;;;28.15;17.20;;;0.70;99.90;;;;;;5054877;28;20041;-32
2023/12/08 00:47:35;;;;;;;27.37;16.80;;;0.70;99.90;;;;;;5054813;28;20481;-32
2023/12/08 00:50:01;;;;;;;24.80;16.40;;;0.70;99.90;;;;;;5054761;28;20045;-32
2023/12/08 00:52:26;;;;;;;27.93;16.13;;;0.70;99.90;;;;;;5054769;28;20047;-32
2023/12/08 00:54:52;;;;;;;31.30;16.47;;;0.60;99.90;;;;;;5053443;28;20047;-32
2023/12/08 00:57:18;;;;;;;29.15;17.25;;;0.60;99.90;;;;;;5053450;28;20072;-32
2023/12/08 00:59:44;;;;;;;29.77;18.05;;;0.60;99.90;;;;;;5054554;28;20056;-32
2023/12/08 01:02:09;;;;;;;27.55;18.33;;;0.60;99.90;;;;;;5053004;28;20047;-33
2023/12/08 01:04:35;;;;;;;28.50;17.27;;;0.60;99.90;;;;;;5054487;28;20049;-33
2023/12/08 01:07:01;;;;;;;29.93;18.07;;;0.60;99.90;;;;;;5054505;28;20053;-33
2023/12/08 01:09:27;;;;;;;25.80;16.75;;;0.60;99.90;;;;;;5053964;28;20421;-34
2023/12/08 01:11:53;;;;;;;28.13;16.45;;;0.60;99.90;;;;;;5054316;28;20040;-32
2023/12/08 01:14:18;;;;;;;30.13;17.85;;;0.60;99.90;;;;;;5054334;28;20087;-32
2023/12/08 01:16:45;;;;;;;29.08;18.30;;;0.60;99.90;;;;;;5054254;28;20493;-32
2023/12/08 01:19:11;;;;;;;27.35;17.25;;;0.60;99.90;;;;;;5054713;28;20041;-33
2023/12/08 01:21:38;;;;;;;31.00;18.45;;;0.60;99.90;;;;;;5054340;28;20048;-33
2023/12/08 01:24:04;;;;;;;25.13;17.03;;;0.60;99.90;;;;;;5054992;28;20049;-33
2023/12/08 01:26:30;;;;;;;26.70;16.23;;;0.60;99.90;;;;;;5053156;28;20041;-33
2023/12/08 01:28:56;;;;;;;28.35;17.90;;;0.60;99.90;;;;;;5053180;28;20098;-32
2023/12/08 01:31:22;;;;;;;29.20;17.58;;;0.60;99.90;;;;;;5054435;28;20068;-32
2023/12/08 01:33:48;;;;;;;27.23;17.42;;;0.60;99.90;;;;;;5053835;28;20368;-33
2023/12/08 01:36:14;;;;;;;30.37;18.13;;;0.60;99.90;;;;;;5053970;28;20085;-34
2023/12/08 01:38:44;;;;;;;26.95;17.05;;;0.60;99.90;;;;;;5053875;28;20425;-33
2023/12/08 01:41:15;;;;;;;29.52;19.10;;;0.60;99.90;;;;;;5053257;28;20068;-33
2023/12/08 01:43:45;;;;;;;27.10;17.88;;;0.60;99.90;;;;;;5053904;28;20080;-33
2023/12/08 01:46:15;;;;;;;31.17;18.90;;;0.50;99.90;;;;;;5053506;28;20398;-33
2023/12/08 01:48:42;;;;;;;28.98;18.10;;;0.50;99.90;;;;;;5053804;28;20394;-33
2023/12/08 01:51:11;;;;;;;25.97;17.20;;;1.30;99.90;;;;;;5036253;28;20124;-33
2023/12/08 01:53:38;;;;;;;28.87;16.53;;;0.50;99.90;;;;;;5052570;28;20387;-33
2023/12/08 01:56:06;;;;;;;30.27;18.87;;;0.50;99.90;;;;;;5053968;28;20071;-33
2023/12/08 01:58:32;;;;;;;29.37;18.93;;;0.50;99.90;;;;;;5053591;28;20138;-32
2023/12/08 02:00:58;;;;;;;33.53;18.70;;;0.50;99.90;;;;;;5053619;28;20084;-33
2023/12/08 02:03:26;;;;;;;32.30;18.88;;;0.50;99.90;;;;;;5052643;28;20033;-33
2023/12/08 02:05:52;;;;;;;32.70;19.37;;;0.40;99.90;;;;;;5054124;28;20091;-32
2023/12/08 02:08:18;;;;;;;29.17;18.90;;;0.40;99.90;;;;;;5053586;28;20045;-33
2023/12/08 02:10:44;;;;;;;31.10;18.50;;;0.50;99.90;;;;;;5053534;28;20048;-33
2023/12/08 02:13:16;;;;;;;32.65;20.10;;;0.40;99.90;;;;;;5053817;28;20048;-33
2023/12/08 02:15:45;;;;;;;29.20;18.67;;;0.90;99.90;;;;;;5057332;28;20526;-32
2023/12/08 02:18:13;;;;;;;29.17;19.30;;;0.40;99.90;;;;;;5058112;28;20044;-32
2023/12/08 02:20:39;;;;;;;34.50;19.80;;;0.40;99.90;;;;;;5057550;28;20495;-33
2023/12/08 02:23:08;;;;;;;34.93;20.10;;;0.40;99.90;;;;;;5057429;28;20041;-33
2023/12/08 02:25:35;;;;;;;32.60;19.45;;;0.40;99.90;;;;;;5058319;28;20041;-34
2023/12/08 02:28:03;;;;;;;33.27;19.80;;;0.40;99.90;;;;;;5057152;28;20471;-33
2023/12/08 02:30:29;;;;;;;32.63;19.50;;;0.40;99.90;;;;;;5057149;28;20037;-33
2023/12/08 02:33:07;;;;;;;32.47;18.87;;;0.40;99.90;;;;;;5057242;28;20048;-34
2023/12/08 02:35:38;;;;;;;30.57;19.17;;;0.40;99.90;;;;;;5057389;28;20048;-33
2023/12/08 02:38:08;;;;;;;28.50;18.70;;;0.40;99.90;;;;;;5057831;28;20041;-33
2023/12/08 02:40:37;;;;;;;28.85;18.08;;;0.40;99.90;;;;;;5057222;28;20087;-33
2023/12/08 02:43:03;;;;;;;29.33;18.33;;;0.40;99.90;;;;;;5057729;28;20372;-33
2023/12/08 02:45:29;;;;;;;32.63;19.83;;;0.80;99.90;;;;;;5057199;28;20041;-34
2023/12/08 02:47:55;;;;;;;36.10;19.17;;;0.40;99.90;;;;;;5057089;28;20484;-34
2023/12/08 02:50:20;;;;;;;32.80;20.50;;;0.40;99.90;;;;;;5055902;28;20040;-33
2023/12/08 02:52:46;;;;;;;32.87;19.57;;;0.40;99.90;;;;;;5057281;28;20080;-33
2023/12/08 02:55:12;;;;;;;29.83;19.47;;;0.40;99.90;;;;;;5056536;28;20041;-33
2023/12/08 02:57:38;;;;;;;33.37;20.13;;;0.40;99.90;;;;;;5056221;28;20044;-33
2023/12/08 03:00:04;;;;;;;36.87;21.03;;;0.40;99.90;;;;;;5039359;28;20052;-33
2023/12/08 03:02:30;;;;;;;31.27;19.47;;;0.40;99.90;;;;;;5056772;28;20040;-34
2023/12/08 03:04:55;;;;;;;34.13;20.45;;;0.40;99.90;;;;;;5056796;28;20037;-33
2023/12/08 03:07:21;;;;;;;30.23;19.33;;;0.40;99.90;;;;;;5056728;28;20509;-33
2023/12/08 03:09:48;;;;;;;34.77;19.50;;;0.40;99.90;;;;;;5055989;28;20535;-33
2023/12/08 03:12:14;;;;;;;35.13;20.03;;;0.40;99.90;;;;;;5055461;28;20479;-33
2023/12/08 03:14:40;;;;;;;28.50;18.45;;;0.30;99.90;;;;;;5056613;28;20052;-33
2023/12/08 03:17:06;;;;;;;32.00;20.10;;;0.40;99.90;;;;;;5056210;28;20073;-33
2023/12/08 03:19:31;;;;;;;31.13;19.07;;;0.40;99.90;;;;;;5056505;28;20045;-33
2023/12/08 03:21:57;;;;;;;31.83;19.87;;;0.80;99.90;;;;;;5055224;28;20041;-33
2023/12/08 03:24:23;;;;;;;32.20;19.50;;;0.40;99.90;;;;;;5038318;28;20056;-33
2023/12/08 03:26:49;;;;;;;32.43;19.17;;;0.30;99.90;;;;;;5057199;28;20041;-33
2023/12/08 03:29:17;;;;;;;31.20;19.30;;;0.40;99.90;;;;;;5056879;28;20415;-33
2023/12/08 03:31:43;;;;;;;33.50;20.87;;;0.40;99.90;;;;;;5054933;28;20182;-34
2023/12/08 03:34:09;;;;;;;31.13;19.10;;;0.40;99.90;;;;;;5056250;28;20497;-34
2023/12/08 03:36:35;;;;;;;28.37;18.40;;;0.40;99.90;;;;;;5055019;28;20130;-33
2023/12/08 03:39:01;;;;;;;31.60;19.73;;;0.40;99.90;;;;;;5056315;28;20200;-34
2023/12/08 03:41:26;;;;;;;34.77;20.53;;;0.30;99.90;;;;;;5056075;28;20075;-34
2023/12/08 03:43:52;;;;;;;30.70;19.23;;;0.30;99.90;;;;;;5056093;28;20048;-33
2023/12/08 03:46:18;;;;;;;34.27;20.13;;;0.30;99.90;;;;;;5056797;28;20040;-34
2023/12/08 03:48:44;;;;;;;32.57;19.33;;;0.40;99.90;;;;;;5055923;28;20052;-34
2023/12/08 03:51:10;;;;;;;29.30;18.67;;;0.30;99.90;;;;;;5055920;28;20087;-33
2023/12/08 03:53:36;;;;;;;33.17;19.90;;;0.30;99.90;;;;;;5055877;28;20044;-34
2023/12/08 03:56:02;;;;;;;32.10;19.40;;;0.40;99.90;;;;;;5055863;28;20107;-34
2023/12/08 03:58:28;;;;;;;30.27;19.10;;;0.40;99.90;;;;;;5055689;28;20048;-33
2023/12/08 04:00:54;;;;;;;30.90;19.48;;;0.40;99.90;;;;;;5056534;28;20036;-33
2023/12/08 04:03:20;;;;;;;32.57;19.53;;;0.40;99.90;;;;;;5055391;28;20554;-33
2023/12/08 04:05:46;;;;;;;30.25;18.85;;;0.40;99.90;;;;;;5055903;28;20132;-33
2023/12/08 04:08:12;;;;;;;31.75;18.27;;;0.40;99.90;;;;;;5054384;28;20037;-33
2023/12/08 04:10:38;;;;;;;34.27;19.33;;;0.40;99.90;;;;;;5056371;28;20048;-34
2023/12/08 04:13:04;;;;;;;34.90;20.33;;;0.40;99.90;;;;;;5055499;28;20045;-33
2023/12/08 04:15:29;;;;;;;30.63;19.23;;;0.40;99.90;;;;;;5055434;28;20041;-34
2023/12/08 04:17:55;;;;;;;34.83;20.37;;;0.30;99.90;;;;;;5055332;28;20191;-34
2023/12/08 04:20:22;;;;;;;33.97;20.10;;;0.40;99.90;;;;;;5054214;28;20051;-34
2023/12/08 04:22:48;;;;;;;33.90;19.73;;;0.30;99.90;;;;;;5055233;28;20041;-34
2023/12/08 04:25:15;;;;;;;35.30;20.00;;;0.20;99.90;;;;;;5055309;28;20052;-34
2023/12/08 04:27:40;;;;;;;34.20;19.70;;;0.30;99.90;;;;;;5055217;28;20490;-34
2023/12/08 04:30:07;;;;;;;34.30;19.63;;;0.30;99.90;;;;;;5054517;28;20049;-34
2023/12/08 04:32:33;;;;;;;36.93;20.10;;;0.20;99.90;;;;;;5055554;28;20064;-35
2023/12/08 04:34:59;;;;;;;34.90;19.60;;;0.10;99.90;;;;;;5055302;28;20379;-37
2023/12/08 04:37:25;;;;;;;32.87;18.80;;;0.20;99.90;;;;;;5053699;28;20032;-41
2023/12/08 04:39:50;;;;;;;38.87;21.33;;;-0.10;99.90;;;;;;5054972;28;20045;-35
2023/12/08 04:42:16;;;;;;;39.53;22.53;;;0.20;99.90;;;;;;5054976;28;20132;-35
2023/12/08 04:44:43;;;;;;;38.33;21.60;;;-0.10;99.90;;;;;;5054905;28;20080;-34
2023/12/08 04:47:11;;;;;;;38.40;20.43;;;-0.10;99.90;;;;;;5054819;28;20041;-34
2023/12/08 04:49:37;;;;;;;39.73;22.27;;;-0.20;99.90;;;;;;5054776;28;20493;-34
2023/12/08 04:52:03;;;;;;;40.37;22.67;;;-0.10;99.90;;;;;;5053593;28;20041;-33
2023/12/08 04:54:29;;;;;;;46.27;23.50;;;0.00;99.90;;;;;;5054682;28;20044;-32
2023/12/08 04:56:54;;;;;;;45.37;22.77;;;0.00;99.90;;;;;;5055241;28;20048;-31
2023/12/08 04:59:20;;;;;;;47.40;22.90;;;-0.30;99.90;;;;;;5054534;28;20105;-31
2023/12/08 05:01:52;;;;;;;50.73;23.50;;;0.10;99.90;;;;;;5055448;28;20064;-32
2023/12/08 05:04:21;;;;;;;51.23;23.63;;;-0.40;99.90;;;;;;5054581;28;20044;-31
2023/12/08 05:06:47;;;;;;;46.67;24.80;;;-0.40;99.90;;;;;;5053335;28;20356;-30
2023/12/08 05:09:13;;;;;;;52.27;24.93;;;-0.40;99.90;;;;;;5054432;28;20040;-30
2023/12/08 05:11:39;;;;;;;52.93;24.27;;;-0.10;99.90;;;;;;5054243;28;20321;-29
2023/12/08 05:14:05;;;;;;;51.60;24.57;;;-0.50;99.90;;;;;;5054318;28;20036;-29
2023/12/08 05:16:31;;;;;;;51.90;26.13;;;-0.50;99.90;;;;;;5054267;28;20045;-29
2023/12/08 05:18:57;;;;;;;58.40;27.23;;;-0.30;99.90;;;;;;5054180;28;20044;-28
2023/12/08 05:21:23;;;;;;;62.23;27.70;;;-0.50;99.90;;;;;;5054199;28;20041;-28
2023/12/08 05:23:50;;;;;;;66.73;28.17;;;-0.40;99.90;;;;;;5053405;28;20487;-27
2023/12/08 05:26:16;;;;;;;63.93;28.23;;;0.30;99.90;;;;;;5054188;28;20180;-28
2023/12/08 05:28:41;;;;;;;56.67;25.57;;;-0.30;99.90;;;;;;5054081;28;20127;-26
2023/12/08 05:31:07;;;;;;;65.73;27.13;;;-0.40;99.90;;;;;;5054534;28;20063;-26
2023/12/08 05:33:33;;;;;;;64.50;28.13;;;-0.20;99.90;;;;;;5053432;28;20536;-25
2023/12/08 05:35:59;;;;;;;63.30;26.43;;;0.30;99.90;;;;;;5053967;28;20098;-25
2023/12/08 05:38:24;;;;;;;60.70;26.50;;;0.40;99.90;;;;;;5052718;28;20036;-25
2023/12/08 05:40:50;;;;;;;66.67;28.57;;;0.00;99.90;;;;;;5053941;28;20098;-24
2023/12/08 05:43:16;;;;;;;67.30;28.23;;;-0.50;99.90;;;;;;5053826;28;20371;-24
2023/12/08 05:45:42;;;;;;;68.30;27.80;;;-0.30;99.90;;;;;;5053819;28;20091;-23
2023/12/08 05:48:08;;;;;;;75.97;28.07;;;-0.20;99.90;;;;;;5053886;28;20037;-22
2023/12/08 05:50:33;;;;;;;78.67;28.20;;;-0.20;99.90;;;;;;5052527;28;20076;-23
2023/12/08 05:52:59;;;;;;;68.97;26.03;;;0.20;99.90;;;;;;5053729;28;20041;-23
2023/12/08 05:55:25;;;;;;;72.40;28.40;;;0.10;99.90;;;;;;5053734;28;20064;-23
2023/12/08 05:57:51;;;;;;;76.00;28.87;;;-0.40;99.90;;;;;;5053598;28;20055;-23
2023/12/08 06:00:18;;;;;;;72.70;28.87;;;-0.40;99.90;;;;;;5053371;28;20055;-23
2023/12/08 06:02:45;;;;;;;75.27;28.50;;;0.10;99.90;;;;;;5053699;28;20375;-23
2023/12/08 06:05:12;;;;;;;75.67;30.20;;;-0.20;99.90;;;;;;5036084;28;20056;-23
2023/12/08 06:07:39;;;;;;;75.80;30.43;;;0.30;99.90;;;;;;5053616;28;20047;-22
2023/12/08 06:10:08;;;;;;;75.27;28.97;;;0.00;99.90;;;;;;5053819;28;20077;-22
2023/12/08 06:12:35;;;;;;;85.60;30.83;;;-0.10;99.90;;;;;;5052035;28;20360;-22
2023/12/08 06:15:00;;;;;;;79.60;29.37;;;-0.40;99.90;;;;;;5053521;28;20044;-22
2023/12/08 06:17:27;;;;;;;81.57;30.07;;;0.10;99.90;;;;;;5053443;28;20041;-22
2023/12/08 06:19:53;;;;;;;81.30;30.63;;;0.30;99.90;;;;;;5020012;28;20040;-22
2023/12/08 06:22:19;;;;;;;71.73;28.57;;;0.10;99.90;;;;;;5053426;28;20045;-23
2023/12/08 06:24:45;;;;;;;84.70;30.60;;;-0.60;99.90;;;;;;5052471;28;20072;-22
2023/12/08 06:27:11;;;;;;;75.80;31.13;;;-0.30;99.90;;;;;;5053429;28;20041;-23
2023/12/08 06:29:37;;;;;;;93.60;32.13;;;0.00;99.90;;;;;;5054224;28;20103;-23
2023/12/08 06:32:03;;;;;;;85.13;30.33;;;0.20;99.90;;;;;;5053596;28;20494;-22
2023/12/08 06:34:29;;;;;;;87.30;31.47;;;-0.70;99.90;;;;;;5053009;28;20045;-23
2023/12/08 06:36:55;;;;;;;95.47;32.33;;;0.10;99.90;;;;;;5053294;28;20041;-22
2023/12/08 06:39:21;;;;;;;90.70;32.70;;;0.30;99.90;;;;;;5053981;28;20405;-22
2023/12/08 06:41:47;;;;;;;90.47;32.93;;;0.00;99.90;;;;;;5053241;28;20084;-22
2023/12/08 06:44:12;;;;;;;86.43;30.37;;;-0.20;99.90;;;;;;5053236;28;20037;-23
2023/12/08 06:46:38;;;;;;;108.53;33.43;;;0.30;99.90;;;;;;5053854;28;20041;-23
2023/12/08 06:49:04;;;;;;;99.47;31.57;;;-0.80;99.90;;;;;;5052871;28;20037;-23
2023/12/08 06:51:30;;;;;;;107.63;32.57;;;0.10;99.90;;;;;;5053751;28;20106;-23
2023/12/08 06:53:57;;;;;;;107.13;33.60;;;-0.60;99.90;;;;;;5052523;28;20056;-23
2023/12/08 06:56:22;;;;;;;98.00;33.33;;;-0.10;99.90;;;;;;5053128;28;20049;-23
2023/12/08 06:58:49;;;;;;;102.83;33.63;;;-0.80;99.90;;;;;;5053021;28;20538;-23
2023/12/08 07:01:14;;;;;;;111.97;34.80;;;-0.10;99.90;;;;;;5055093;28;20098;-23
2023/12/08 07:03:40;;;;;;;86.53;30.87;;;0.20;99.90;;;;;;5056802;28;20127;-23
2023/12/08 07:06:06;;;;;;;106.93;32.67;;;-0.50;99.90;;;;;;5055610;28;20120;-22
2023/12/08 07:08:32;;;;;;;89.63;32.27;;;-0.50;99.90;;;;;;5056696;28;20041;-22
2023/12/08 07:10:58;;;;;;;101.20;33.47;;;-0.60;99.90;;;;;;5055474;28;20053;-22
2023/12/08 07:13:24;;;;;;;95.43;31.93;;;-0.60;99.90;;;;;;5055466;28;20040;-22
2023/12/08 07:15:50;;;;;;;106.80;33.20;;;0.30;99.90;;;;;;5055399;28;20037;-22
2023/12/08 07:18:17;;;;;;;101.13;34.07;;;-0.40;99.90;;;;;;5056470;28;20041;-22
2023/12/08 07:20:43;;;;;;;107.80;32.63;;;-0.60;99.90;;;;;;5056536;28;20060;-22
2023/12/08 07:23:08;;;;;;;94.60;32.13;;;0.30;99.90;;;;;;5056368;28;20357;-22
2023/12/08 07:25:34;;;;;;;101.73;32.40;;;0.20;99.90;;;;;;5055716;28;20044;-22
2023/12/08 07:28:00;;;;;;;101.03;33.17;;;0.30;99.90;;;;;;5056821;28;20083;-22
2023/12/08 07:30:26;;;;;;;85.13;32.00;;;-0.70;99.90;;;;;;5056044;28;20057;-22
2023/12/08 07:32:52;;;;;;;90.20;31.63;;;0.10;99.90;;;;;;5056320;28;20040;-22
2023/12/08 07:35:18;;;;;;;98.07;34.03;;;-0.70;99.90;;;;;;5056245;28;20044;-22
2023/12/08 07:37:44;;;;;;;98.00;32.47;;;-0.30;99.90;;;;;;5056065;28;20077;-22
2023/12/08 07:40:11;;;;;;;101.33;33.43;;;-0.50;99.90;;;;;;5056153;28;20077;-22
2023/12/08 07:42:37;;;;;;;89.37;32.40;;;0.30;99.90;;;;;;5056129;28;20048;-21
2023/12/08 07:45:06;;;;;;;90.33;31.90;;;-0.60;99.90;;;;;;5038372;28;20128;-21
2023/12/08 07:47:32;;;;;;;98.63;33.33;;;-0.40;99.90;;;;;;5055277;28;20102;-21
2023/12/08 07:49:58;;;;;;;92.43;31.60;;;-0.70;99.90;;;;;;5055002;28;20116;-22
2023/12/08 07:52:25;;;;;;;96.17;32.73;;;0.30;99.90;;;;;;5055926;28;20045;-22
2023/12/08 07:54:51;;;;;;;97.23;32.73;;;0.40;99.90;;;;;;5055824;28;20051;-21
2023/12/08 07:57:16;;;;;;;100.60;33.90;;;0.40;99.90;;;;;;5056550;28;20044;-21
2023/12/08 07:59:42;;;;;;;94.40;31.00;;;0.00;99.90;;;;;;5055065;28;20371;-21
2023/12/08 08:02:08;;;;;;;86.47;30.77;;;-0.40;99.90;;;;;;5054522;28;20475;-22
2023/12/08 08:04:34;;;;;;;91.57;30.87;;;-0.20;99.90;;;;;;5055660;28;20037;-21
2023/12/08 08:07:00;;;;;;;89.23;31.13;;;-0.60;99.90;;;;;;5021357;28;20045;-22
2023/12/08 08:09:25;;;;;;;94.03;30.73;;;-0.30;99.90;;;;;;5055453;28;20041;-21
2023/12/08 08:11:51;;;;;;;99.47;32.03;;;-0.60;99.90;;;;;;5056298;28;20060;-21
2023/12/08 08:14:17;;;;;;;85.07;31.27;;;-0.30;99.90;;;;;;5055845;28;20049;-21
2023/12/08 08:16:43;;;;;;;86.97;31.90;;;-0.10;99.90;;;;;;5055502;28;20124;-21
2023/12/08 08:19:08;;;;;;;97.77;31.67;;;-0.60;99.90;;;;;;5055329;28;20128;-21
2023/12/08 08:21:34;;;;;;;89.90;31.47;;;0.60;99.90;;;;;;5054344;28;20051;-21
2023/12/08 08:24:00;;;;;;;94.30;33.27;;;-0.20;99.90;;;;;;5055362;28;20068;-21
2023/12/08 08:26:27;;;;;;;82.63;29.83;;;0.50;99.90;;;;;;5055230;28;20044;-21
2023/12/08 08:28:52;;;;;;;94.60;31.67;;;0.50;99.90;;;;;;5021116;28;20036;-21
2023/12/08 08:31:18;;;;;;;95.83;32.50;;;0.20;99.90;;;;;;5054754;28;20439;-21
2023/12/08 08:33:45;;;;;;;100.57;32.77;;;0.40;99.90;;;;;;5054164;28;20053;-22
2023/12/08 08:36:11;;;;;;;96.33;32.47;;;-0.60;99.90;;;;;;5055017;28;20470;-21
2023/12/08 08:38:38;;;;;;;89.60;30.83;;;0.40;99.90;;;;;;5054953;28;20037;-21
2023/12/08 08:41:04;;;;;;;89.63;31.73;;;-0.50;99.90;;;;;;5055045;28;20053;-21
2023/12/08 08:43:30;;;;;;;90.40;32.50;;;0.60;99.90;;;;;;5054879;28;20075;-21
2023/12/08 08:45:56;;;;;;;101.77;34.47;;;0.40;99.90;;;;;;5054853;28;20036;-21
2023/12/08 08:48:21;;;;;;;82.90;30.50;;;-0.40;99.90;;;;;;5054760;28;20124;-21
2023/12/08 08:50:48;;;;;;;94.40;33.80;;;-0.10;99.90;;;;;;5055589;28;20052;-21
2023/12/08 08:53:17;;;;;;;81.77;31.03;;;-0.40;99.90;;;;;;5054797;28;20467;-21
2023/12/08 08:55:44;;;;;;;87.80;30.73;;;0.30;99.90;;;;;;5054663;28;20036;-21
2023/12/08 08:58:10;;;;;;;92.43;32.20;;;0.60;99.90;;;;;;5054573;28;20041;-21
2023/12/08 09:00:36;;;;;;;94.33;32.57;;;-0.10;99.90;;;;;;5053604;28;20041;-21
2023/12/08 09:03:02;;;;;;;86.50;30.73;;;0.50;99.90;;;;;;5054231;28;20125;-21
2023/12/08 09:05:30;;;;;;;98.43;34.03;;;0.70;99.90;;;;;;5053506;28;20086;-21
2023/12/08 09:07:56;;;;;;;99.07;31.80;;;0.00;99.90;;;;;;5054001;28;20539;-21
2023/12/08 09:10:22;;;;;;;89.47;31.90;;;-0.40;99.90;;;;;;5054418;28;20041;-21
2023/12/08 09:12:48;;;;;;;86.83;31.60;;;0.70;99.90;;;;;;5054385;28;20179;-21
2023/12/08 09:15:14;;;;;;;94.83;32.43;;;0.00;99.90;;;;;;5054323;28;20124;-21
2023/12/08 09:17:41;;;;;;;93.93;31.40;;;0.40;99.90;;;;;;5054113;28;20044;-21
2023/12/08 09:20:12;;;;;;;90.70;32.57;;;0.80;99.90;;;;;;5054209;28;20047;-21
2023/12/08 09:22:38;;;;;;;91.17;32.70;;;-0.40;99.90;;;;;;5053012;28;20037;-21
2023/12/08 09:25:04;;;;;;;84.60;32.07;;;0.00;99.90;;;;;;5055002;28;20052;-21
2023/12/08 09:27:30;;;;;;;88.80;31.80;;;0.70;99.90;;;;;;5053210;28;20084;-21
2023/12/08 09:29:56;;;;;;;92.07;34.13;;;-0.30;99.90;;;;;;5054615;28;20406;-21
2023/12/08 09:32:23;;;;;;;81.50;28.87;;;-0.20;99.90;;;;;;5054290;28;20075;-21
2023/12/08 09:34:50;;;;;;;98.70;34.30;;;0.20;99.90;;;;;;5052837;28;20036;-21
2023/12/08 09:37:16;;;;;;;91.40;32.53;;;-0.30;99.90;;;;;;5053854;28;20425;-21
2023/12/08 09:39:42;;;;;;;83.87;31.90;;;0.40;99.90;;;;;;5053878;28;20036;-21
2023/12/08 09:42:16;;;;;;;85.87;31.43;;;0.40;99.90;;;;;;5053863;28;20041;-21
2023/12/08 09:44:42;;;;;;;85.60;31.07;;;0.40;99.90;;;;;;5053904;28;20052;-21
2023/12/08 09:47:09;;;;;;;99.20;32.70;;;-0.20;99.90;;;;;;5053431;28;20045;-21
2023/12/08 09:49:44;;;;;;;93.23;33.97;;;0.90;99.90;;;;;;5054008;28;20043;-21
2023/12/08 09:52:14;;;;;;;73.05;29.33;;;-0.10;99.90;;;;;;5053177;28;20044;-21
2023/12/08 09:54:41;;;;;;;82.70;30.93;;;0.50;99.90;;;;;;5054036;28;20098;-21
2023/12/08 09:57:09;;;;;;;82.07;29.92;;;0.90;99.90;;;;;;5053705;28;20383;-21
2023/12/08 09:59:38;;;;;;;88.70;31.92;;;0.00;99.90;;;;;;5052370;28;20134;-21
2023/12/08 10:02:06;;;;;;;99.70;32.40;;;0.50;99.90;;;;;;5053641;28;20143;-21
2023/12/08 10:04:32;;;;;;;86.65;31.58;;;1.30;99.90;;;;;;5053560;28;20051;-21
2023/12/08 10:07:03;;;;;;;80.40;31.27;;;1.10;99.90;;;;;;5054202;28;20174;-21
2023/12/08 10:09:30;;;;;;;73.83;30.43;;;0.30;99.90;;;;;;5053485;28;20104;-21
2023/12/08 10:11:56;;;;;;;80.23;31.73;;;1.10;99.90;;;;;;5053625;28;20048;-21
2023/12/08 10:14:25;;;;;;;81.67;30.57;;;0.10;99.90;;;;;;5053809;28;20375;-21
2023/12/08 10:16:51;;;;;;;90.17;32.93;;;0.20;99.90;;;;;;5052561;28;20141;-21
2023/12/08 10:19:21;;;;;;;87.50;32.80;;;0.60;99.90;;;;;;5052953;28;20037;-20
2023/12/08 10:22:02;;;;;;;78.03;31.70;;;1.20;99.90;;;;;;5056482;28;20049;-20
2023/12/08 10:24:30;;;;;;;77.60;31.27;;;1.30;99.90;;;;;;5053945;28;20048;-21
2023/12/08 10:26:59;;;;;;;88.03;31.03;;;0.40;99.90;;;;;;5053392;28;20052;-21
2023/12/08 10:29:30;;;;;;;88.55;32.38;;;0.30;99.90;;;;;;5053306;28;20045;-21
2023/12/08 10:31:57;;;;;;;84.13;31.43;;;0.30;99.90;;;;;;5053600;28;20110;-21
2023/12/08 10:34:24;;;;;;;91.68;33.75;;;0.40;99.90;;;;;;5051826;28;20049;-21
2023/12/08 10:36:49;;;;;;;89.03;32.38;;;0.30;99.90;;;;;;5057252;28;20076;-21
2023/12/08 10:39:17;;;;;;;89.93;32.53;;;1.20;99.90;;;;;;5057407;28;20084;-21
2023/12/08 10:41:43;;;;;;;79.27;32.43;;;0.70;99.90;;;;;;5057684;28;20045;-21
2023/12/08 10:44:11;;;;;;;84.75;31.75;;;0.50;99.90;;;;;;5055910;28;20048;-21
2023/12/08 10:46:37;;;;;;;81.13;31.97;;;1.40;99.90;;;;;;5039788;28;20063;-21
2023/12/08 10:49:03;;;;;;;88.82;32.60;;;1.00;99.90;;;;;;5057005;28;20045;-21
2023/12/08 10:51:30;;;;;;;80.00;33.07;;;1.30;99.90;;;;;;5056979;28;20053;-21
2023/12/08 10:53:57;;;;;;;78.77;31.40;;;0.60;99.90;;;;;;5056910;28;20049;-21
2023/12/08 10:56:23;;;;;;;73.93;31.65;;;0.80;99.90;;;;;;5056876;28;20064;-21
2023/12/08 10:59:05;;;;;;;79.55;30.80;;;0.40;99.90;;;;;;5056502;28;20052;-21
2023/12/08 11:01:33;;;;;;;88.30;31.05;;;0.90;99.90;;;;;;5056817;28;20045;-21
2023/12/08 11:04:03;;;;;;;75.18;31.17;;;1.10;99.90;;;;;;5039184;28;20063;-21
2023/12/08 11:06:33;;;;;;;81.82;31.55;;;1.60;99.90;;;;;;5056693;28;20094;-21
2023/12/08 11:09:05;;;;;;;82.57;31.43;;;1.60;99.90;;;;;;5056527;28;20040;-21
2023/12/08 11:11:32;;;;;;;90.65;34.25;;;1.60;99.90;;;;;;5057121;28;20048;-21
2023/12/08 11:14:08;;;;;;;83.47;31.85;;;1.60;99.90;;;;;;5056550;28;20090;-21
2023/12/08 11:16:41;;;;;;;93.47;33.43;;;0.90;99.90;;;;;;5056398;28;20053;-21
2023/12/08 11:19:10;;;;;;;92.68;32.80;;;0.70;99.90;;;;;;5057291;28;20049;-21
2023/12/08 11:21:37;;;;;;;81.72;30.98;;;0.90;99.90;;;;;;5056314;28;20051;-21
2023/12/08 11:24:06;;;;;;;87.80;32.25;;;1.60;99.90;;;;;;5056381;28;20084;-21
2023/12/08 11:26:42;;;;;;;91.20;33.00;;;1.60;99.90;;;;;;5056193;28;20064;-21
2023/12/08 11:29:16;;;;;;;79.47;30.67;;;1.60;99.90;;;;;;5056885;28;20049;-21
2023/12/08 11:31:56;;;;;;;81.35;32.45;;;0.70;99.90;;;;;;5056606;28;20053;-21
2023/12/08 11:34:37;;;;;;;104.37;34.63;;;1.60;99.90;;;;;;5056562;28;20049;-21
2023/12/08 11:37:06;;;;;;;83.88;31.77;;;1.30;99.90;;;;;;5056791;28;20041;-21
2023/12/08 11:39:40;;;;;;;89.05;33.28;;;1.70;99.90;;;;;;5055987;28;20041;-21
2023/12/08 11:42:10;;;;;;;;;;;1.60;99.90;;;;;;5056525;28;20053;-21
2023/12/08 11:44:41;;;;;;;97.97;32.77;;;1.70;99.90;;;;;;5054824;28;19960;-21
2023/12/08 11:47:07;;;;;;;101.63;33.53;;;0.90;99.90;;;;;;5054620;28;20041;-21
2023/12/08 11:49:38;;;;;;;114.50;36.20;;;0.80;99.90;;;;;;5056115;28;20041;-21
2023/12/08 11:52:15;;;;;;;99.95;34.95;;;1.00;99.90;;;;;;5055852;28;20049;-21
2023/12/08 11:55:07;;;;;;;121.68;38.05;;;1.50;99.90;;;;;;5054849;28;20049;-21
2023/12/08 11:57:38;;;;;;;100.68;32.75;;;0.80;99.90;;;;;;5055378;28;20084;-21
2023/12/08 12:00:09;;;;;;;95.57;34.97;;;1.40;99.90;;;;;;5055449;28;20562;-21
2023/12/08 12:02:35;;;;;;;104.18;35.20;;;0.80;99.90;;;;;;5055722;28;20131;-21
2023/12/08 12:05:00;;;;;;;107.35;35.22;;;1.80;99.90;;;;;;5055917;28;20080;-21
2023/12/08 12:07:27;;;;;;;107.97;35.55;;;1.30;99.90;;;;;;5055519;28;20395;-21
2023/12/08 12:09:55;;;;;;;115.18;36.85;;;1.60;99.90;;;;;;5055440;28;20045;-21
2023/12/08 12:12:28;;;;;;;103.18;33.95;;;1.80;99.90;;;;;;5055435;28;20068;-21
2023/12/08 12:14:55;;;;;;;;;;;0.80;99.90;;;;;;5055871;28;20055;-21
2023/12/08 12:17:24;;;;;;;106.95;34.47;;;1.30;99.90;;;;;;5054155;28;19921;-21
2023/12/08 12:19:52;;;;;;;122.65;36.45;;;0.90;99.90;;;;;;5055597;28;20110;-21
2023/12/08 12:22:18;;;;;;;114.50;36.28;;;0.80;99.90;;;;;;5055276;28;20061;-21
2023/12/08 12:24:45;;;;;;;111.30;36.53;;;0.80;99.90;;;;;;5054560;28;20383;-21
2023/12/08 12:27:10;;;;;;;117.28;35.50;;;1.80;99.90;;;;;;5055218;28;20049;-21
2023/12/08 12:29:36;;;;;;;138.65;39.75;;;1.80;99.90;;;;;;5054173;28;20056;-21
2023/12/08 12:32:08;;;;;;;127.22;37.10;;;1.50;99.90;;;;;;5054670;28;20499;-21